Flight Track Log - Related Links

Times and Time Zones

All times are in EDT time to prevent confusion due to time zone crossing. See the UAL4093 flight status page for this flight to view local times or setup timezone preferences in your user account.

Time Position Orientation Groundspeed Altitude Reporting Facility
EDT Latitude Longitude Course Direction KTS MPH feet Rate Location/Type
Mon 05:24:00 PM 26.8246 -81.7333 North  Level FlightAware Approximate
Mon 05:24:08 PM 26.6739 -81.7219 336° Northwest 224 258 5,000  Level Miami Center
Mon 05:25:00 PM 26.9221 -81.7333 360° North  Level FlightAware Approximate
Mon 05:25:08 PM 26.7489 -81.7275 356° North 241 277 7,400  Level Miami Center
Mon 05:26:00 PM 27.0194 -81.7344 340° North  Level FlightAware Approximate
Mon 05:26:08 PM 26.8258 -81.7331 356° North 261 300 9,600  Level Miami Center
Mon 05:27:00 PM 27.1116 -81.7696 347° North  Level FlightAware Approximate
Mon 05:27:08 PM 26.9072 -81.7386 357° North 279 321 10,900  Level Miami Center
Mon 05:28:00 PM 27.2061 -81.7965 343° North  Level FlightAware Approximate
Mon 05:28:08 PM 26.9986 -81.7472 355° North 306 352 12,600  Level Miami Center
Mon 05:29:00 PM 27.2980 -81.8323 336° Northwest  Level FlightAware Approximate
Mon 05:29:08 PM 27.0858 -81.7647 350° North 319 367 15,100  Level Miami Center
Mon 05:30:08 PM 27.1703 -81.7942 343° North 319 367 16,900 1,400 Climbing Miami Center
Mon 05:31:08 PM 27.2592 -81.8236 344° North 313 360 17,900 1,050 Climbing Miami Center
Mon 05:32:08 PM 27.3500 -81.8508 345° North 333 383 19,000 1,050 Climbing Miami Center
Mon 05:33:08 PM 27.4467 -81.8878 341° North 347 399 20,000 950 Climbing Miami Center
Mon 05:34:08 PM 27.5353 -81.9197 342° North 363 418 20,900 900 Climbing Miami Center
Mon 05:35:08 PM 27.6383 -81.9572 342° North 370 426 21,800 947 Climbing Miami Center
Mon 05:36:40 PM 27.8025 -82.0081 345° North 381 438 23,300 987 Climbing Jacksonville Center
Mon 05:37:40 PM 27.9153 -82.0119 358° North 386 444 24,300 950 Climbing Jacksonville Center
Mon 05:38:40 PM 28.0197 -82.0367 348° North 391 450 25,200 950 Climbing Jacksonville Center
Mon 05:39:40 PM 28.1183 -82.0972 332° Northwest 391 450 26,200 1,000 Climbing Jacksonville Center
Mon 05:40:40 PM 28.2147 -82.1600 330° Northwest 396 456 27,200 950 Climbing Jacksonville Center
Mon 05:41:40 PM 28.3108 -82.2183 332° Northwest 396 456 28,100 950 Climbing Jacksonville Center
Mon 05:42:40 PM 28.4050 -82.2789 331° Northwest 396 456 29,100 950 Climbing Jacksonville Center
Mon 05:43:40 PM 28.4972 -82.3375 331° Northwest 391 450 30,000 950 Climbing Jacksonville Center
Mon 05:44:40 PM 28.5872 -82.3986 329° Northwest 385 443 31,000 950 Climbing Jacksonville Center
Mon 05:45:40 PM 28.6522 -82.4856 310° West 378 435 31,900 1,000 Climbing Jacksonville Center
Mon 05:46:40 PM 28.7108 -82.5919 302° West 359 413 33,000 1,000 Climbing Jacksonville Center
Mon 05:47:40 PM 28.7633 -82.6911 301° West 364 419 33,900 900 Climbing Jacksonville Center
Mon 05:48:40 PM 28.8156 -82.7883 302° West 364 419 34,800 850 Climbing Jacksonville Center
Mon 05:49:40 PM 28.8617 -82.8711 302° West 359 413 35,600 600 Climbing Jacksonville Center
Mon 05:50:40 PM 28.9136 -82.9686 301° West 354 407 36,000 200 Climbing Jacksonville Center
Mon 05:51:40 PM 28.9636 -83.0658 300° West 354 407 36,000  Level Jacksonville Center
Mon 05:52:40 PM 29.0200 -83.1681 302° West 364 419 36,000  Level Jacksonville Center
Mon 05:53:40 PM 29.0761 -83.2750 301° West 377 434 36,000  Level Jacksonville Center
Mon 05:54:40 PM 29.1319 -83.3800 301° West 382 440 36,000  Level Jacksonville Center
Mon 05:55:40 PM 29.1878 -83.4872 301° West 382 440 36,000 -50 Level Jacksonville Center
Mon 05:56:40 PM 29.2478 -83.5947 303° West 387 445 35,900  Descending Jacksonville Center
Mon 05:57:40 PM 29.3036 -83.7000 301° West 387 445 36,000 50 Climbing Jacksonville Center
Mon 05:58:40 PM 29.3592 -83.8053 301° West 387 445 36,000  Level Jacksonville Center
Mon 05:59:40 PM 29.4169 -83.9131 302° West 387 445 36,000  Level Jacksonville Center
Mon 06:00:40 PM 29.4744 -84.0208 302° West 387 445 36,000  Level Jacksonville Center
Mon 06:01:40 PM 29.5319 -84.1267 302° West 392 451 36,000  Level Jacksonville Center
Mon 06:02:40 PM 29.5850 -84.2372 299° West 392 451 36,000  Level Jacksonville Center
Mon 06:03:40 PM 29.6425 -84.3456 301° West 392 451 36,000  Level Jacksonville Center
Mon 06:04:40 PM 29.6994 -84.4564 301° West 398 458 36,000  Level Jacksonville Center
Mon 06:05:40 PM 29.7647 -84.5744 303° West 403 464 36,000  Level Jacksonville Center
Mon 06:06:40 PM 29.8239 -84.6881 301° West 408 470 36,000  Level Jacksonville Center
Mon 06:07:40 PM 29.8806 -84.8017 300° West 408 470 36,000  Level Jacksonville Center
Mon 06:08:40 PM 29.9394 -84.9181 300° West 414 476 36,000  Level Jacksonville Center
Mon 06:09:40 PM 29.9981 -85.0294 301° West 409 471 36,000  Level Jacksonville Center
Mon 06:10:40 PM 30.0544 -85.1436 300° West 409 471 36,000  Level Jacksonville Center
Mon 06:11:40 PM 30.1131 -85.2553 301° West 409 471 36,000  Level Jacksonville Center
Mon 06:12:40 PM 30.1736 -85.3697 301° West 409 471 36,000  Level Jacksonville Center
Mon 06:13:40 PM 30.2217 -85.4767 297° West 409 471 36,000  Level Jacksonville Center
Mon 06:14:40 PM 30.2881 -85.5964 303° West 409 471 36,000  Level Jacksonville Center
Mon 06:15:40 PM 30.3400 -85.6989 300° West 507 583 36,000  Level Jacksonville Center
Mon 06:16:40 PM 30.3917 -85.8161 297° West 429 494 36,000 -50 Level Jacksonville Center
Mon 06:17:40 PM 30.3992 -85.9414 274° West 403 464 35,900  Descending Jacksonville Center
Mon 06:18:40 PM 30.4003 -86.0717 271° West 403 464 36,000 50 Climbing Jacksonville Center
Mon 06:19:40 PM 30.4031 -86.2017 271° West 403 464 36,000  Level Jacksonville Center
Mon 06:20:40 PM 30.4061 -86.3294 272° West 403 464 36,000  Level Jacksonville Center
Mon 06:21:40 PM 30.4086 -86.4572 271° West 403 464 36,000  Level Jacksonville Center
Mon 06:22:40 PM 30.4092 -86.5847 270° West 403 464 36,000  Level Jacksonville Center
Mon 06:23:40 PM 30.4097 -86.7125 270° West 403 464 36,000  Level Jacksonville Center
Mon 06:24:40 PM 30.4119 -86.8425 271° West 403 464 36,000  Level Jacksonville Center
Mon 06:25:40 PM 30.4142 -86.9703 271° West 403 464 36,000  Level Jacksonville Center
Mon 06:26:40 PM 30.4142 -87.0981 270° West 403 464 36,000  Level Jacksonville Center
Mon 06:27:40 PM 30.4161 -87.2256 271° West 403 464 36,000  Level Jacksonville Center
Mon 06:28:40 PM 30.4161 -87.3508 270° West 403 464 36,000  Level Jacksonville Center
Mon 06:30:36 PM 30.4186 -87.6064 271° West 398 458 36,000  Level Houston Center
Mon 06:31:38 PM 30.4192 -87.7356 270° West 399 459 36,000  Level Houston Center
Mon 06:32:40 PM 30.4200 -87.8650 270° West 401 461 36,000  Level Houston Center
Mon 06:33:42 PM 30.4197 -87.9953 270° West 402 463 36,000  Level Houston Center
Mon 06:34:44 PM 30.4194 -88.1253 270° West 402 463 36,000  Level Houston Center
Mon 06:35:46 PM 30.4189 -88.2819 270° West 403 464 36,000  Level Houston Center
Mon 06:36:48 PM 30.4192 -88.4131 270° West 404 465 36,000  Level Houston Center
Mon 06:37:50 PM 30.4186 -88.5433 270° West 403 464 36,000  Level Houston Center
Mon 06:38:52 PM 30.4181 -88.6719 270° West 400 460 36,000  Level Houston Center
Mon 06:39:54 PM 30.4172 -88.8014 270° West 399 459 36,000  Level Houston Center
Mon 06:40:56 PM 30.4161 -88.9317 269° West 402 463 36,000  Level Houston Center
Mon 06:41:58 PM 30.4194 -89.0603 272° West 402 463 36,000  Level Houston Center
Mon 06:43:00 PM 30.4169 -89.2156 269° West 401 461 36,000  Level Houston Center
Mon 06:44:02 PM 30.3878 -89.3383 255° West 396 456 36,000  Level Houston Center
Mon 06:45:04 PM 30.3456 -89.4578 248° West 398 458 36,000  Level Houston Center
Mon 06:46:06 PM 30.3028 -89.5778 248° West 400 460 36,000  Level Houston Center
Mon 06:47:08 PM 30.2581 -89.7003 247° West 406 467 36,000  Level Houston Center
Mon 06:48:10 PM 30.2150 -89.8258 248° West 406 467 36,000  Level Houston Center
Mon 06:49:12 PM 30.1714 -89.9481 248° West 406 467 36,000  Level Houston Center
Mon 06:50:14 PM 30.1297 -90.0678 248° West 404 465 36,000  Level Houston Center
Mon 06:51:16 PM 30.0775 -90.2128 247° West 407 468 36,000  Level Houston Center
Mon 06:52:18 PM 30.0342 -90.3325 247° West 405 466 36,000  Level Houston Center
Mon 06:53:19 PM 29.9908 -90.4528 247° West 405 466 36,000  Level Houston Center
Mon 06:54:21 PM 29.9469 -90.5714 247° West 404 465 36,000  Level Houston Center
Mon 06:55:23 PM 29.9050 -90.6897 248° West 400 460 36,000  Level Houston Center
Mon 06:56:25 PM 29.8619 -90.8078 247° West 399 459 36,000  Level Houston Center
Mon 06:57:27 PM 29.8189 -90.9256 247° West 400 460 36,000  Level Houston Center
Mon 06:58:29 PM 29.7658 -91.0669 247° West 400 460 36,000  Level Houston Center
Mon 06:59:31 PM 29.7244 -91.1814 247° West 391 450 36,000  Level Houston Center
Mon 07:00:33 PM 29.6828 -91.2964 247° West 389 448 36,000  Level Houston Center
Mon 07:01:35 PM 29.6400 -91.4114 247° West 391 450 36,000  Level Houston Center
Mon 07:02:37 PM 29.6092 -91.5325 254° West 399 459 36,000  Level Houston Center
Mon 07:03:38 PM 29.5906 -91.6553 260° West 392 451 36,000  Level Houston Center
Mon 07:04:40 PM 29.5683 -91.7842 259° West 387 445 36,000  Level Houston Center
Mon 07:05:42 PM 29.5494 -91.9056 260° West 387 445 36,000  Level Houston Center
Mon 07:06:44 PM 29.5250 -92.0497 259° West 385 443 36,000  Level Houston Center
Mon 07:07:46 PM 29.5050 -92.1692 259° West 382 440 36,000  Level Houston Center
Mon 07:08:48 PM 29.4847 -92.2900 259° West 384 442 36,000  Level Houston Center
Mon 07:09:50 PM 29.4642 -92.4103 259° West 385 443 36,000  Level Houston Center
Mon 07:10:52 PM 29.4600 -92.5361 268° West 395 455 36,000  Level Houston Center
Mon 07:11:54 PM 29.4656 -92.6644 273° West 403 464 36,000  Level Houston Center
Mon 07:12:56 PM 29.4719 -92.7928 273° West 401 461 36,000  Level Houston Center
Mon 07:13:58 PM 29.4789 -92.9444 273° West 398 458 36,000 -823 Level Houston Center
Mon 07:15:00 PM 29.4833 -93.0711 272° West 397 457 34,300 -2,032 Descending Houston Center
Mon 07:16:02 PM 29.4900 -93.1992 273° West 399 459 31,800 -2,323 Descending Houston Center
Mon 07:17:04 PM 29.4944 -93.3306 272° West 410 472 29,500 -2,195 Descending Houston Center
Mon 07:18:05 PM 29.5008 -93.4611 273° West 409 471 27,300 -2,195 Descending Houston Center
Mon 07:19:07 PM 29.5061 -93.5936 273° West 415 478 25,000 -2,177 Descending Houston Center
Mon 07:20:09 PM 29.5100 -93.7225 272° West 408 470 22,800 -2,371 Descending Houston Center
Mon 07:21:11 PM 29.5156 -93.8742 272° West 397 457 20,100 -2,371 Descending Houston Center
Mon 07:22:13 PM 29.5194 -93.9928 272° West 376 433 17,900 -2,032 Descending Houston Center
Mon 07:23:15 PM 29.5253 -94.1106 273° West 371 427 15,900 -2,020 Descending Houston Center
Mon 07:23:51 PM 29.5269 -94.1875 271° West 363 418 14,600 -1,742 Descending Houston Center
Mon 07:24:17 PM 29.5283 -94.2167 273° West 364 419 14,100 -1,600 Descending Houston Center
Mon 07:24:51 PM 29.5306 -94.3072 272° West 359 413 13,000 -1,065 Descending Houston Center
Mon 07:25:19 PM 29.5356 -94.3508 278° West 349 402 13,000  Level Houston Center
Mon 07:25:53 PM 29.5594 -94.4067 296° West 351 404 13,000 -484 Level Houston Center
Mon 07:26:21 PM 29.5783 -94.4500 297° West 351 404 12,500 -1,082 Descending Houston Center
Mon 07:26:54 PM 29.6033 -94.5117 295° West 348 400 11,900 -1,082 Descending Houston Center
Mon 07:27:22 PM 29.6200 -94.5489 297° West 347 399 11,400 -1,082 Descending Houston Center
Mon 07:27:55 PM 29.6467 -94.6119 296° West 346 398 10,800 -968 Descending Houston Center
Mon 07:28:24 PM 29.6625 -94.6475 297° West 346 398 10,400 -787 Descending Houston Center
Mon 07:28:56 PM 29.6878 -94.7103 295° West 343 395 10,000 -290 Descending Houston Center
Mon 07:29:26 PM 29.7042 -94.7464 298° West 345 397 10,100 98 Climbing Houston Center
Mon 07:29:57 PM 29.7308 -94.8083 296° West 343 395 10,100 -97 Level Houston Center
Mon 07:30:28 PM 29.7458 -94.8433 296° West 342 394 10,000  Descending Houston Center
Mon 07:30:58 PM 29.7717 -94.9042 296° West 337 388 10,100 97 Climbing Houston Center
Mon 07:31:30 PM 29.7942 -94.9583 296° West 337 388 10,100  Level Houston Center
Mon 07:32:00 PM 29.8153 -95.0097 295° West 337 388 10,100 -97 Level Houston Center
Mon 07:32:32 PM 29.8350 -95.0542 297° West 338 389 10,000 -1,082 Descending Houston Center
Mon 07:33:01 PM 29.8528 -95.0964 296° West 288 331 9,000 -2,032 Descending Houston Center
Mon 07:33:34 PM 29.8694 -95.1353 296° West 291 335 7,900 -2,361 Descending Houston Center
Mon 07:34:02 PM 29.8878 -95.1789 296° West 284 327 6,600 -1,742 Descending Houston Center
Mon 07:34:36 PM 29.9006 -95.2164 291° West 282 325 6,100 -313 Descending Houston Center
Mon 07:35:38 PM 29.8994 -95.3008 269° West 267 307 6,100  Level Houston Center
Mon 07:36:04 PM 29.8997 -95.3558 270° West 272 313 6,100 -97 Level Houston Center
Mon 07:36:40 PM 29.8997 -95.4075 270° West 272 313 6,000  Descending Houston Center
Mon 07:37:05 PM 29.8994 -95.4428 269° West 235 270 6,100 -97 Climbing Houston Center
Mon 07:37:42 PM 29.9000 -95.4808 271° West 248 285 5,900 -885 Descending Houston Center
Mon 07:38:06 PM 29.8997 -95.5172 270° West 232 267 5,200 -1,258 Descending Houston Center
Mon 07:38:44 PM 29.9006 -95.5550 271° West 235 270 4,600 -1,082 Descending Houston Center
Mon 07:39:07 PM 29.9003 -95.5919 270° West 230 265 4,100 -590 Descending Houston Center
Mon 07:39:45 PM 29.9019 -95.6269 273° West 229 264 4,000  Descending Houston Center
Mon 07:40:08 PM 29.9300 -95.6414 336° Northwest 236 272 4,100  Climbing Houston Center
Mon 07:40:47 PM 29.9597 -95.6392 North 224 258 4,000 -295 Descending Houston Center
Mon 07:41:09 PM 29.9781 -95.6164 47° Northeast 187 215 3,800 -484 Descending Houston Center
Mon 07:41:49 PM 29.9911 -95.5903 60° Northeast 192 221 3,500 -484 Descending Houston Center
Mon 07:42:11 PM 29.9944 -95.5639 82° East 161 185 3,300 -484 Descending Houston Center
Mon 07:42:51 PM 29.9939 -95.5289 91° East 168 193 3,000 -590 Descending Houston Center
Mon 07:43:12 PM 29.9936 -95.5086 91° East 164 189 2,700 -774 Descending Houston Center
Mon 07:43:53 PM 29.9933 -95.4781 91° East 161 185 2,200 -787 Descending Houston Center
Mon 07:44:13 PM 29.9936 -95.4628 89° East 133 153 1,900 -677 Descending Houston Center
Mon 07:44:55 PM 30.0014 -95.4364 71° East 151 174 1,500 -590 Descending Houston Center
Mon 07:45:14 PM 30.0064 -95.4203 70° East 141 162 1,300 -632 Descending Houston Center

Login

Don't have an account? Register now (free) for customized features, flight alerts, and more!